North Avondale, Colorado
Current Conditions -  °F | °C
As of 9:53 PM on Sunday 19 Oct 2014 (Local Time) from KPUB Reporting Station
Clear Clear  
Wind Chill: 56°   Ceiling: Unl
Heat Index: 56°   Visibility: 10mi
Dew Point: 35°   Wind: 0mph
Humidity: 45%   Direction: NA
Pressure: 30.13"   Gusts: NA
Location:  38.0104°N, 104.392°W
Report Text: KPUB 200353Z 00000KT 10SM R08R/5000VP6000FT CLR 13/02 A3013 RMK AO2 SLP166 T01330017
Loading
Personal Weather Stations






























Interactive Weather Map New forecast layout! Learn more

10-Day Weather Forecast

Advertisements
Track Severe Weather on mobile